Time;durP1;ratioP1;P1;durP2;ratioP2;P2;SDS_P1;SDS_P2;PMS_P1;PMS_P2;Temp;Humidity;BMP_temperature;BMP_pressure;BME280_temperature;BME280_humidity;BME280_pressure;Samples;Min_cycle;Max_cycle;Signal;HPM_P1;HPM_P2
2022/03/31 00:01:02;;;;;;;25.15;20.23;;;2.90;99.90;;;;;;4987267;28;20228;-54
2022/03/31 00:03:30;;;;;;;22.67;20.17;;;3.00;99.90;;;;;;4983077;28;20436;-52
2022/03/31 00:05:57;;;;;;;22.55;20.10;;;2.90;99.90;;;;;;4984591;28;20273;-55
2022/03/31 00:08:24;;;;;;;23.42;20.88;;;2.80;99.90;;;;;;4986175;28;20226;-53
2022/03/31 00:10:55;;;;;;;23.08;20.23;;;2.90;99.90;;;;;;4986437;28;20207;-52
2022/03/31 00:13:28;;;;;;;24.98;22.05;;;2.80;99.90;;;;;;4986529;28;20393;-51
2022/03/31 00:15:58;;;;;;;26.80;21.83;;;2.80;99.90;;;;;;4986958;28;20203;-53
2022/03/31 00:18:29;;;;;;;23.08;19.50;;;2.90;99.90;;;;;;4986328;28;20224;-51
2022/03/31 00:20:57;;;;;;;29.17;23.85;;;2.80;99.90;;;;;;4986856;28;20419;-51
2022/03/31 00:23:24;;;;;;;27.88;22.15;;;2.90;99.90;;;;;;4986150;28;20201;-52
2022/03/31 00:25:52;;;;;;;26.58;21.15;;;2.80;99.90;;;;;;4986817;28;20192;-48
2022/03/31 00:28:19;;;;;;;23.17;19.48;;;2.80;99.90;;;;;;4986526;28;20219;-54
2022/03/31 00:30:47;;;;;;;29.30;23.40;;;2.80;99.90;;;;;;4986604;28;20251;-50
2022/03/31 00:33:14;;;;;;;26.92;21.80;;;2.80;99.90;;;;;;4986460;28;20208;-54
2022/03/31 00:35:41;;;;;;;26.30;22.40;;;2.80;99.90;;;;;;4986535;28;20203;-52
2022/03/31 00:38:10;;;;;;;34.42;21.75;;;2.80;99.90;;;;;;4987873;28;20423;-55
2022/03/31 00:40:38;;;;;;;27.30;22.48;;;2.80;99.90;;;;;;4985496;28;20260;-54
2022/03/31 00:43:07;;;;;;;29.27;22.92;;;2.80;99.90;;;;;;4984640;28;20231;-51
2022/03/31 00:45:46;;;;;;;31.85;24.13;;;2.80;99.90;;;;;;4983706;28;20238;-54
2022/03/31 00:48:17;;;;;;;36.25;26.50;;;2.90;99.90;;;;;;4983370;28;20211;-48
2022/03/31 00:50:45;;;;;;;27.67;24.60;;;2.90;99.90;;;;;;4983489;28;20211;-49
2022/03/31 00:53:12;;;;;;;24.00;21.45;;;2.90;99.90;;;;;;4983374;28;20211;-51
2022/03/31 00:55:58;;;;;;;26.33;23.38;;;2.80;99.90;;;;;;4983588;28;20230;-52
2022/03/31 00:58:26;;;;;;;32.00;23.38;;;2.80;99.90;;;;;;4982829;28;20223;-54
2022/03/31 01:00:53;;;;;;;30.40;21.80;;;2.70;99.90;;;;;;4983387;28;20204;-52
2022/03/31 01:03:21;;;;;;;33.72;27.40;;;2.70;99.90;;;;;;4982679;28;20205;-54
2022/03/31 01:05:49;;;;;;;32.22;24.33;;;2.70;99.90;;;;;;4983053;28;20207;-50
2022/03/31 01:08:17;;;;;;;32.05;25.55;;;2.70;99.90;;;;;;4983078;28;20206;-54
2022/03/31 01:10:47;;;;;;;26.50;22.30;;;2.80;99.90;;;;;;4982912;28;20552;-49
2022/03/31 01:13:14;;;;;;;35.03;25.50;;;2.90;99.90;;;;;;4983039;28;20200;-52
2022/03/31 01:15:42;;;;;;;29.23;23.25;;;2.80;99.90;;;;;;4982748;28;20235;-49
2022/03/31 01:18:10;;;;;;;27.02;22.90;;;2.80;99.90;;;;;;4983168;28;20228;-54
2022/03/31 01:20:39;;;;;;;29.55;24.85;;;2.80;99.90;;;;;;4983337;28;20201;-56
2022/03/31 01:23:17;;;;;;;26.27;22.52;;;2.90;99.90;;;;;;4982586;28;20227;-54
2022/03/31 01:25:44;;;;;;;33.92;25.35;;;3.00;99.90;;;;;;4983395;28;20200;-54
2022/03/31 01:28:11;;;;;;;39.90;26.25;;;3.00;99.90;;;;;;4983388;28;20500;-54
2022/03/31 01:30:39;;;;;;;28.95;25.30;;;3.00;99.90;;;;;;4983479;28;20271;-50
2022/03/31 01:33:06;;;;;;;32.67;24.75;;;3.00;99.90;;;;;;4982767;28;20489;-51
2022/03/31 01:35:33;;;;;;;33.55;25.70;;;2.90;99.90;;;;;;4983201;28;20438;-53
2022/03/31 01:38:00;;;;;;;33.40;26.42;;;2.90;99.90;;;;;;4982552;28;20327;-55
2022/03/31 01:40:27;;;;;;;33.47;26.23;;;2.80;99.90;;;;;;4982524;28;20246;-53
2022/03/31 01:42:55;;;;;;;29.85;24.60;;;2.80;99.90;;;;;;4982408;28;20224;-56
2022/03/31 01:45:23;;;;;;;32.47;26.00;;;2.90;99.90;;;;;;4982548;28;20222;-55
2022/03/31 01:47:51;;;;;;;32.60;25.58;;;2.90;99.90;;;;;;4982383;28;20279;-53
2022/03/31 01:50:18;;;;;;;31.88;24.95;;;2.90;99.90;;;;;;4981817;28;20212;-54
2022/03/31 01:52:45;;;;;;;30.70;25.23;;;2.90;99.90;;;;;;4981807;28;20271;-54
2022/03/31 01:55:12;;;;;;;32.65;25.90;;;3.00;99.90;;;;;;4982198;28;20213;-54
2022/03/31 01:57:39;;;;;;;31.98;23.80;;;2.90;99.90;;;;;;4982454;28;20415;-49
2022/03/31 02:00:08;;;;;;;30.75;26.65;;;3.00;99.90;;;;;;4982105;28;20425;-54
2022/03/31 02:02:35;;;;;;;35.47;27.88;;;3.00;99.90;;;;;;4982075;28;20221;-56
2022/03/31 02:05:03;;;;;;;42.40;28.83;;;3.00;99.90;;;;;;4982168;28;20226;-53
2022/03/31 02:07:30;;;;;;;33.92;25.95;;;3.00;99.90;;;;;;4981703;28;20511;-55
2022/03/31 02:09:57;;;;;;;32.25;26.85;;;2.90;99.90;;;;;;4982084;28;20259;-54
2022/03/31 02:12:24;;;;;;;35.28;28.65;;;2.90;99.90;;;;;;4982032;28;20547;-50
2022/03/31 02:14:51;;;;;;;36.53;27.75;;;2.90;99.90;;;;;;4981800;28;20211;-52
2022/03/31 02:17:18;;;;;;;33.20;26.65;;;3.00;99.90;;;;;;4981981;28;20204;-53
2022/03/31 02:19:46;;;;;;;29.20;24.98;;;3.00;99.90;;;;;;4981623;28;20498;-49
2022/03/31 02:22:13;;;;;;;26.63;22.70;;;2.90;99.90;;;;;;4981116;28;20594;-55
2022/03/31 02:24:41;;;;;;;32.63;25.63;;;2.90;99.90;;;;;;4981676;28;20247;-49
2022/03/31 02:27:08;;;;;;;32.60;26.35;;;2.90;99.90;;;;;;4981509;28;20204;-52
2022/03/31 02:29:35;;;;;;;36.25;28.80;;;2.90;99.90;;;;;;4981892;28;20497;-54
2022/03/31 02:32:04;;;;;;;34.92;27.67;;;2.90;99.90;;;;;;4981147;28;20224;-51
2022/03/31 02:34:31;;;;;;;36.50;28.42;;;2.90;99.90;;;;;;4980976;28;20431;-49
2022/03/31 02:36:59;;;;;;;34.80;27.83;;;3.00;99.90;;;;;;4981034;28;20201;-53
2022/03/31 02:39:29;;;;;;;35.50;28.15;;;3.10;99.90;;;;;;4980925;28;20226;-53
2022/03/31 02:41:57;;;;;;;36.13;26.13;;;3.00;99.90;;;;;;4981380;28;20239;-52
2022/03/31 02:44:24;;;;;;;34.05;27.20;;;3.00;99.90;;;;;;4980542;28;20200;-49
2022/03/31 02:46:52;;;;;;;33.63;27.75;;;3.00;99.90;;;;;;4980856;28;20209;-49
2022/03/31 02:49:20;;;;;;;32.63;24.70;;;3.10;99.90;;;;;;4980772;28;20205;-51
2022/03/31 02:51:47;;;;;;;36.08;26.40;;;3.00;99.90;;;;;;4980683;28;20583;-47
2022/03/31 02:57:01;;;;;;;32.88;26.35;;;3.00;99.90;;;;;;4980906;28;20203;-51
2022/03/31 02:59:30;;;;;;;32.30;26.52;;;3.00;99.90;;;;;;4980356;28;20295;-50
2022/03/31 03:01:58;;;;;;;42.28;29.27;;;3.00;99.90;;;;;;4980461;28;20263;-49
2022/03/31 03:04:27;;;;;;;42.30;27.83;;;3.00;99.90;;;;;;4980265;28;20256;-48
2022/03/31 03:06:54;;;;;;;34.47;26.27;;;3.00;99.90;;;;;;4981046;28;20367;-49
2022/03/31 03:09:22;;;;;;;32.28;24.77;;;3.10;99.90;;;;;;4980706;28;20216;-48
2022/03/31 03:11:49;;;;;;;31.58;26.65;;;3.00;99.90;;;;;;4980507;28;20232;-49
2022/03/31 03:14:17;;;;;;;37.75;29.23;;;3.00;99.90;;;;;;4961126;29;20208;-52
2022/03/31 03:16:44;;;;;;;35.47;26.45;;;2.90;99.90;;;;;;4961625;28;20205;-49
2022/03/31 03:19:12;;;;;;;41.83;25.95;;;2.90;99.90;;;;;;4961058;28;20583;-47
2022/03/31 03:21:40;;;;;;;29.63;24.25;;;2.90;99.90;;;;;;4961071;28;20284;-48
2022/03/31 03:24:08;;;;;;;28.92;25.83;;;2.90;99.90;;;;;;4961252;28;20209;-54
2022/03/31 03:26:35;;;;;;;31.27;24.20;;;2.90;99.90;;;;;;4961754;28;20228;-49
2022/03/31 03:29:02;;;;;;;41.03;26.30;;;2.90;99.90;;;;;;4962836;28;20203;-51
2022/03/31 03:31:29;;;;;;;35.15;28.27;;;3.00;99.90;;;;;;4960805;28;20224;-46
2022/03/31 03:33:57;;;;;;;43.63;28.50;;;3.00;99.90;;;;;;4960940;28;20215;-52
2022/03/31 03:36:24;;;;;;;32.45;25.33;;;3.00;99.90;;;;;;4960708;28;20228;-49
2022/03/31 03:38:51;;;;;;;27.48;22.60;;;3.00;99.90;;;;;;4960793;28;20456;-49
2022/03/31 03:41:18;;;;;;;31.23;24.95;;;3.00;99.90;;;;;;4960612;28;20225;-49
2022/03/31 03:43:45;;;;;;;24.65;21.85;;;3.00;99.90;;;;;;4960990;28;20204;-51
2022/03/31 03:46:15;;;;;;;33.00;25.17;;;2.90;99.90;;;;;;4961015;28;20500;-49
2022/03/31 03:48:43;;;;;;;26.40;22.80;;;2.90;99.90;;;;;;4960978;28;20205;-49
2022/03/31 03:51:10;;;;;;;28.75;23.15;;;3.00;99.90;;;;;;4960970;28;20256;-50
2022/03/31 03:53:37;;;;;;;25.98;21.63;;;2.90;99.90;;;;;;4961340;28;20204;-47
2022/03/31 03:56:05;;;;;;;32.03;24.92;;;2.90;99.90;;;;;;4960694;28;20213;-53
2022/03/31 03:58:32;;;;;;;34.80;25.45;;;2.80;99.90;;;;;;4961340;28;20231;-49
2022/03/31 04:00:59;;;;;;;32.28;24.35;;;2.80;99.90;;;;;;4967024;28;20445;-54
2022/03/31 04:03:27;;;;;;;30.38;24.52;;;2.80;99.90;;;;;;4979587;28;20195;-49
2022/03/31 04:05:55;;;;;;;31.50;24.08;;;2.70;99.90;;;;;;4977371;28;20262;-48
2022/03/31 04:08:23;;;;;;;30.98;24.33;;;2.70;99.90;;;;;;4979659;28;20198;-47
2022/03/31 04:10:50;;;;;;;27.15;23.25;;;2.70;99.90;;;;;;4979950;28;20230;-52
2022/03/31 04:13:18;;;;;;;27.65;24.70;;;2.70;99.90;;;;;;4980484;28;20274;-49
2022/03/31 04:15:46;;;;;;;29.80;24.30;;;2.80;99.90;;;;;;4983836;28;20206;-54
2022/03/31 04:18:14;;;;;;;28.35;23.08;;;2.80;99.90;;;;;;4983378;28;20285;-54
2022/03/31 04:20:41;;;;;;;29.58;23.63;;;2.70;99.90;;;;;;4983576;28;20234;-47
2022/03/31 04:23:08;;;;;;;26.80;19.63;;;2.70;99.90;;;;;;4983228;28;20203;-48
2022/03/31 04:25:35;;;;;;;29.90;23.13;;;2.70;99.90;;;;;;4983793;28;20286;-50
2022/03/31 04:28:04;;;;;;;30.30;24.30;;;2.70;99.90;;;;;;4983698;28;20217;-46
2022/03/31 04:30:33;;;;;;;30.42;23.77;;;2.70;99.90;;;;;;4983481;28;20258;-48
2022/03/31 04:33:02;;;;;;;30.77;23.08;;;2.70;99.90;;;;;;4983728;28;20258;-50
2022/03/31 04:35:29;;;;;;;30.35;22.85;;;2.70;99.90;;;;;;4983097;28;20207;-53
2022/03/31 04:37:56;;;;;;;32.40;25.00;;;2.60;99.90;;;;;;4983537;28;20251;-49
2022/03/31 04:40:23;;;;;;;32.70;22.95;;;2.60;99.90;;;;;;4983530;28;20254;-51
2022/03/31 04:42:51;;;;;;;30.55;23.17;;;2.60;99.90;;;;;;4980356;28;20271;-51
2022/03/31 04:45:19;;;;;;;25.38;20.85;;;2.60;99.90;;;;;;4983591;28;20406;-54
2022/03/31 04:47:47;;;;;;;30.83;23.70;;;2.50;99.90;;;;;;4981056;28;20214;-53
2022/03/31 04:50:14;;;;;;;34.78;24.73;;;2.50;99.90;;;;;;4981864;28;20250;-56
2022/03/31 04:52:43;;;;;;;31.05;23.35;;;2.70;99.90;;;;;;4983121;28;20231;-48
2022/03/31 04:55:11;;;;;;;30.83;23.95;;;2.70;99.90;;;;;;4971016;28;20267;-49
2022/03/31 04:57:39;;;;;;;28.73;22.90;;;2.60;99.90;;;;;;4969824;28;20307;-51
2022/03/31 05:00:07;;;;;;;30.73;22.75;;;2.60;99.90;;;;;;4970200;28;20292;-49
2022/03/31 05:02:36;;;;;;;30.33;23.80;;;2.60;99.90;;;;;;4982300;28;20323;-53
2022/03/31 05:05:05;;;;;;;28.15;22.45;;;2.50;99.90;;;;;;4982573;28;20211;-53
2022/03/31 05:07:32;;;;;;;31.38;22.85;;;2.50;99.90;;;;;;4983318;28;20203;-51
2022/03/31 05:10:00;;;;;;;31.55;23.00;;;2.50;99.90;;;;;;4983179;28;20210;-51
2022/03/31 05:12:27;;;;;;;26.95;21.60;;;2.50;99.90;;;;;;4983818;28;20305;-48
2022/03/31 05:14:55;;;;;;;29.27;22.83;;;2.50;99.90;;;;;;4984186;28;20211;-51
2022/03/31 05:17:22;;;;;;;28.65;19.92;;;2.50;99.90;;;;;;4984620;28;20274;-48
2022/03/31 05:19:49;;;;;;;23.67;20.10;;;2.50;99.90;;;;;;4985197;28;20220;-52
2022/03/31 05:22:16;;;;;;;30.30;21.67;;;2.50;99.90;;;;;;4983280;28;20296;-51
2022/03/31 05:24:43;;;;;;;28.30;21.25;;;2.40;99.90;;;;;;4982449;28;20264;-51
2022/03/31 05:27:10;;;;;;;31.45;21.90;;;2.40;99.90;;;;;;4981906;28;20199;-48
2022/03/31 05:29:38;;;;;;;30.83;23.25;;;2.50;99.90;;;;;;4982418;28;20519;-49
2022/03/31 05:32:06;;;;;;;24.95;20.08;;;2.50;99.90;;;;;;4982447;28;20247;-53
2022/03/31 05:34:35;;;;;;;28.67;21.48;;;2.50;99.90;;;;;;4982654;28;20201;-50
2022/03/31 05:37:03;;;;;;;25.60;20.00;;;2.50;99.90;;;;;;4982456;28;20271;-53
2022/03/31 05:39:32;;;;;;;29.17;22.75;;;2.40;99.90;;;;;;4982051;28;20466;-54
2022/03/31 05:42:00;;;;;;;31.20;22.05;;;2.50;99.90;;;;;;4978315;28;20220;-48
2022/03/31 05:44:27;;;;;;;24.88;20.95;;;2.50;99.90;;;;;;4966118;28;20212;-49
2022/03/31 05:46:54;;;;;;;29.30;21.00;;;2.50;99.90;;;;;;4977576;28;20513;-53
2022/03/31 05:49:21;;;;;;;33.83;24.77;;;2.50;99.90;;;;;;4962034;28;20255;-49
2022/03/31 05:51:48;;;;;;;28.58;20.60;;;2.40;99.90;;;;;;4970660;28;20464;-52
2022/03/31 05:54:16;;;;;;;28.08;22.45;;;2.40;99.90;;;;;;4987381;28;20408;-53
2022/03/31 05:56:43;;;;;;;26.70;22.23;;;2.40;99.90;;;;;;4981788;28;20208;-48
2022/03/31 05:59:10;;;;;;;27.33;21.50;;;2.30;99.90;;;;;;4973910;28;20230;-49
2022/03/31 06:01:38;;;;;;;29.33;21.40;;;2.30;99.90;;;;;;4977602;28;20568;-49
2022/03/31 06:04:05;;;;;;;28.05;20.80;;;2.40;99.90;;;;;;4981658;28;20251;-48
2022/03/31 06:06:32;;;;;;;29.38;20.65;;;2.40;99.90;;;;;;4978616;28;20229;-49
2022/03/31 06:09:00;;;;;;;31.85;22.05;;;2.40;99.90;;;;;;4981335;28;20257;-50
2022/03/31 06:11:27;;;;;;;30.42;23.58;;;2.40;99.90;;;;;;4980728;28;20242;-49
2022/03/31 06:13:54;;;;;;;27.60;22.25;;;2.30;99.90;;;;;;4981178;28;20228;-53
2022/03/31 06:16:22;;;;;;;29.77;22.55;;;2.30;99.90;;;;;;4980564;28;20506;-51
2022/03/31 06:18:49;;;;;;;26.23;21.83;;;2.30;99.90;;;;;;4981226;28;20296;-48
2022/03/31 06:21:17;;;;;;;31.52;25.23;;;2.30;99.90;;;;;;4980584;28;20282;-51
2022/03/31 06:23:44;;;;;;;27.73;21.60;;;2.50;99.90;;;;;;4981280;28;20206;-49
2022/03/31 06:26:11;;;;;;;25.98;21.67;;;2.40;99.90;;;;;;4981437;28;20199;-49
2022/03/31 06:28:39;;;;;;;26.63;20.58;;;2.30;99.90;;;;;;4981038;28;20216;-48
2022/03/31 06:31:06;;;;;;;30.60;23.42;;;2.40;99.90;;;;;;4981027;28;20235;-52
2022/03/31 06:33:34;;;;;;;29.98;23.65;;;2.30;99.90;;;;;;4981173;28;20207;-50
2022/03/31 06:36:03;;;;;;;26.83;21.60;;;2.40;99.90;;;;;;4982104;28;20209;-50
2022/03/31 06:38:30;;;;;;;25.90;21.90;;;2.40;99.90;;;;;;4980153;28;20310;-47
2022/03/31 06:41:06;;;;;;;27.20;20.80;;;2.60;99.90;;;;;;4981012;28;20199;-51
2022/03/31 06:43:34;;;;;;;26.10;20.55;;;2.50;99.90;;;;;;4981382;28;20206;-47
2022/03/31 06:46:02;;;;;;;31.40;24.10;;;2.50;99.90;;;;;;4981163;28;20199;-50
2022/03/31 06:48:31;;;;;;;30.17;21.33;;;2.40;99.90;;;;;;4980557;28;20203;-49
2022/03/31 06:50:59;;;;;;;31.77;24.38;;;2.40;99.90;;;;;;4980576;28;20464;-49
2022/03/31 06:53:26;;;;;;;33.25;23.75;;;2.40;99.90;;;;;;4980252;28;20237;-47
2022/03/31 06:55:54;;;;;;;28.52;20.90;;;2.40;99.90;;;;;;4980470;28;20246;-48
2022/03/31 06:58:25;;;;;;;29.10;21.73;;;2.40;99.90;;;;;;4979288;28;20254;-50
2022/03/31 07:00:53;;;;;;;29.10;23.13;;;2.50;99.90;;;;;;4981155;28;20502;-48
2022/03/31 07:03:23;;;;;;;26.73;22.08;;;2.50;99.90;;;;;;4999947;28;20199;-47
2022/03/31 07:05:53;;;;;;;25.65;20.83;;;2.50;99.90;;;;;;4984585;28;20266;-53
2022/03/31 07:08:21;;;;;;;24.35;19.85;;;2.60;99.90;;;;;;4980469;28;20195;-50
2022/03/31 07:10:49;;;;;;;27.45;20.90;;;2.60;99.90;;;;;;4984373;28;20407;-54
2022/03/31 07:13:17;;;;;;;24.05;19.17;;;2.40;99.90;;;;;;4985450;28;20514;-55
2022/03/31 07:15:44;;;;;;;30.08;20.58;;;2.50;99.90;;;;;;4982862;28;20207;-49
2022/03/31 07:18:11;;;;;;;28.73;19.25;;;2.50;99.90;;;;;;4999504;28;20214;-50
2022/03/31 07:20:38;;;;;;;24.83;19.33;;;2.60;99.90;;;;;;4999276;28;20536;-49
2022/03/31 07:23:06;;;;;;;20.95;18.75;;;2.50;99.90;;;;;;5000497;28;20218;-53
2022/03/31 07:25:34;;;;;;;27.45;21.02;;;2.60;99.90;;;;;;4999910;28;20202;-50
2022/03/31 07:28:02;;;;;;;23.80;18.27;;;2.70;99.90;;;;;;4999776;28;20199;-49
2022/03/31 07:30:29;;;;;;;19.50;17.25;;;2.70;99.90;;;;;;4999819;28;20203;-48
2022/03/31 07:33:03;;;;;;;32.00;18.98;;;2.60;99.90;;;;;;4999721;28;20254;-49
2022/03/31 07:35:33;;;;;;;28.35;17.25;;;2.60;99.90;;;;;;5000056;28;20406;-52
2022/03/31 07:38:03;;;;;;;22.95;17.52;;;2.60;99.90;;;;;;4999725;28;20213;-50
2022/03/31 07:40:37;;;;;;;24.30;17.50;;;2.70;99.90;;;;;;4999557;28;20238;-48
2022/03/31 07:43:05;;;;;;;24.30;16.65;;;2.80;99.90;;;;;;4999279;28;20257;-48
2022/03/31 07:45:34;;;;;;;24.30;17.73;;;2.70;99.90;;;;;;4999096;28;20289;-47
2022/03/31 07:48:03;;;;;;;20.00;15.63;;;2.60;99.90;;;;;;4999379;28;20205;-49
2022/03/31 07:50:31;;;;;;;20.80;16.98;;;2.60;99.90;;;;;;5003269;28;20255;-50
2022/03/31 07:52:58;;;;;;;23.67;18.48;;;2.60;99.90;;;;;;5004089;28;20223;-53
2022/03/31 07:55:25;;;;;;;21.02;17.35;;;2.70;99.90;;;;;;5003670;28;20379;-49
2022/03/31 07:57:53;;;;;;;23.00;17.67;;;2.70;99.90;;;;;;5003378;28;20464;-49
2022/03/31 08:00:22;;;;;;;21.20;17.88;;;2.80;99.90;;;;;;5003759;28;20226;-54
2022/03/31 08:02:51;;;;;;;20.52;17.92;;;2.80;99.90;;;;;;5003691;28;20264;-48
2022/03/31 08:05:24;;;;;;;23.63;19.13;;;2.90;99.90;;;;;;4992455;28;20200;-49
2022/03/31 08:07:52;;;;;;;21.88;18.80;;;2.90;99.90;;;;;;4983414;28;20200;-47
2022/03/31 08:10:23;;;;;;;20.25;16.23;;;2.80;99.90;;;;;;4983419;28;20267;-52
2022/03/31 08:12:52;;;;;;;26.05;16.70;;;2.80;99.90;;;;;;4983222;28;20228;-50
2022/03/31 08:15:23;;;;;;;22.20;16.08;;;2.80;99.90;;;;;;4983467;28;20270;-49
2022/03/31 08:17:53;;;;;;;22.02;18.42;;;2.80;99.90;;;;;;4983883;28;20543;-49
2022/03/31 08:20:21;;;;;;;25.45;19.92;;;2.70;99.90;;;;;;4982996;28;20250;-52
2022/03/31 08:22:48;;;;;;;24.35;17.55;;;2.90;99.90;;;;;;4983232;28;20220;-48
2022/03/31 08:25:16;;;;;;;17.85;16.05;;;3.00;99.90;;;;;;4983153;28;20205;-47
2022/03/31 08:27:44;;;;;;;23.10;18.70;;;3.00;99.90;;;;;;4983256;28;20207;-58
2022/03/31 08:30:18;;;;;;;24.15;18.48;;;2.90;99.90;;;;;;4982924;28;20272;-51
2022/03/31 08:32:48;;;;;;;21.65;16.23;;;2.80;99.90;;;;;;4982754;28;20262;-51
2022/03/31 08:35:19;;;;;;;21.67;16.33;;;2.70;99.90;;;;;;4983255;28;20204;-51
2022/03/31 08:37:53;;;;;;;20.45;15.05;;;2.70;99.90;;;;;;4983127;28;20215;-53
2022/03/31 08:40:20;;;;;;;23.92;17.77;;;2.70;99.90;;;;;;4982571;28;20490;-47
2022/03/31 08:42:48;;;;;;;23.77;17.35;;;2.80;99.90;;;;;;4982713;28;20291;-52
2022/03/31 08:45:18;;;;;;;26.65;19.33;;;2.80;99.90;;;;;;4982795;28;20247;-51
2022/03/31 08:47:48;;;;;;;24.27;18.50;;;2.90;99.90;;;;;;4983141;28;20207;-51
2022/03/31 08:50:22;;;;;;;22.70;18.13;;;3.00;99.90;;;;;;4983304;28;20515;-48
2022/03/31 08:52:50;;;;;;;22.35;17.73;;;3.30;99.90;;;;;;4984169;28;20236;-52
2022/03/31 08:55:18;;;;;;;24.33;18.33;;;3.20;99.90;;;;;;4993804;28;20203;-54
2022/03/31 08:57:49;;;;;;;26.60;20.50;;;3.30;99.90;;;;;;4974967;28;20219;-51
2022/03/31 09:00:20;;;;;;;25.75;18.08;;;3.20;99.90;;;;;;4973716;28;20469;-54
2022/03/31 09:03:10;;;;;;;20.73;16.63;;;3.20;99.90;;;;;;4974567;28;20613;-53
2022/03/31 09:05:42;;;;;;;22.55;18.10;;;3.30;99.90;;;;;;4975901;28;20275;-55
2022/03/31 09:08:14;;;;;;;20.52;16.88;;;3.40;99.90;;;;;;4977234;28;20284;-54
2022/03/31 09:10:49;;;;;;;20.35;17.60;;;3.50;99.90;;;;;;4979833;28;20249;-54
2022/03/31 09:13:30;;;;;;;22.42;18.00;;;3.50;99.90;;;;;;4978376;28;20204;-51
2022/03/31 09:16:03;;;;;;;26.38;17.90;;;3.50;99.90;;;;;;4983408;28;20205;-49
2022/03/31 09:18:33;;;;;;;23.27;17.92;;;3.70;99.90;;;;;;4982527;28;20205;-54
2022/03/31 09:21:04;;;;;;;22.88;18.02;;;3.70;99.90;;;;;;4982061;28;20279;-51
2022/03/31 09:23:39;;;;;;;21.48;17.63;;;3.70;99.90;;;;;;4982122;28;20239;-54
2022/03/31 09:26:11;;;;;;;20.23;16.45;;;3.60;99.90;;;;;;4984922;28;20526;-54
2022/03/31 09:28:40;;;;;;;20.88;16.85;;;3.60;99.90;;;;;;4987805;28;20201;-55
2022/03/31 09:31:11;;;;;;;24.63;18.52;;;3.60;99.90;;;;;;4965908;28;20292;-52
2022/03/31 09:33:45;;;;;;;25.75;19.65;;;3.70;99.90;;;;;;4988928;28;20432;-54
2022/03/31 09:36:23;;;;;;;22.85;17.27;;;3.80;99.90;;;;;;4993676;28;20201;-53
2022/03/31 09:39:05;;;;;;;24.42;19.73;;;3.80;99.90;;;;;;4981689;28;20259;-52
2022/03/31 09:41:35;;;;;;;34.65;20.50;;;3.70;99.90;;;;;;4982033;28;20219;-53
2022/03/31 09:44:06;;;;;;;21.95;17.85;;;3.70;99.90;;;;;;4982579;28;20376;-53
2022/03/31 09:46:36;;;;;;;27.55;20.15;;;3.80;99.90;;;;;;4981982;28;20212;-53
2022/03/31 09:49:17;;;;;;;27.70;20.10;;;3.70;99.90;;;;;;4982921;28;20201;-53
2022/03/31 09:51:46;;;;;;;23.83;17.95;;;3.70;99.90;;;;;;4982158;28;20234;-54
2022/03/31 09:54:14;;;;;;;28.17;19.33;;;3.90;99.90;;;;;;4982475;28;20436;-53
2022/03/31 09:56:42;;;;;;;25.10;20.17;;;4.00;99.90;;;;;;4982160;28;20209;-53
2022/03/31 09:59:12;;;;;;;27.02;19.88;;;4.20;99.90;;;;;;4982467;28;20508;-56
2022/03/31 10:01:51;;;;;;;23.92;18.67;;;4.30;99.90;;;;;;4982131;28;20235;-55
2022/03/31 10:04:20;;;;;;;23.70;19.23;;;4.30;99.90;;;;;;4981796;28;20555;-53
2022/03/31 10:06:53;;;;;;;26.15;18.70;;;4.10;99.90;;;;;;4981668;28;20200;-55
2022/03/31 10:09:22;;;;;;;28.02;21.33;;;4.20;99.90;;;;;;4981607;28;20393;-54
2022/03/31 10:11:55;;;;;;;22.42;17.60;;;4.50;99.90;;;;;;4981799;28;20467;-54
2022/03/31 10:14:32;;;;;;;22.58;16.80;;;4.50;99.90;;;;;;4981718;28;20304;-52
2022/03/31 10:17:05;;;;;;;27.52;17.65;;;4.40;99.90;;;;;;4977845;28;20200;-53
2022/03/31 10:19:35;;;;;;;22.85;18.70;;;4.40;99.90;;;;;;4981442;28;20208;-50
2022/03/31 10:25:08;;;;;;;23.42;18.42;;;4.50;99.90;;;;;;4982311;28;20510;-54
2022/03/31 10:27:47;;;;;;;23.13;16.98;;;4.30;99.90;;;;;;4981553;28;20209;-51
2022/03/31 10:30:23;;;;;;;21.80;17.45;;;4.40;99.90;;;;;;4973505;28;20272;-54
2022/03/31 10:32:55;;;;;;;26.00;17.08;;;4.40;99.90;;;;;;4981939;28;20236;-54
2022/03/31 10:35:28;;;;;;;27.40;18.75;;;4.30;99.90;;;;;;4981143;28;20243;-52
2022/03/31 10:37:57;;;;;;;20.52;16.63;;;4.30;99.90;;;;;;4982101;28;20209;-50
2022/03/31 10:40:34;;;;;;;21.73;16.08;;;4.40;99.90;;;;;;4980650;28;20224;-52
2022/03/31 10:43:02;;;;;;;22.30;17.67;;;4.20;99.90;;;;;;4981246;28;20288;-51
2022/03/31 10:45:42;;;;;;;24.23;17.75;;;4.10;99.90;;;;;;4981268;28;20205;-54
2022/03/31 10:48:30;;;;;;;20.38;17.40;;;4.30;99.90;;;;;;4981340;28;20209;-53
2022/03/31 10:51:11;;;;;;;26.70;17.45;;;4.40;99.90;;;;;;4982078;28;20345;-51
2022/03/31 10:53:48;;;;;;;20.45;16.52;;;4.50;99.90;;;;;;4981539;28;20213;-54
2022/03/31 10:56:24;;;;;;;19.55;14.20;;;4.60;99.90;;;;;;4981625;28;20530;-50
2022/03/31 10:58:54;;;;;;;18.83;13.98;;;4.50;99.90;;;;;;4982035;28;20247;-52
2022/03/31 11:01:22;;;;;;;23.13;15.82;;;4.40;99.90;;;;;;4981876;28;20229;-54
2022/03/31 11:03:50;;;;;;;17.17;13.05;;;4.30;99.90;;;;;;4981363;28;20449;-54
2022/03/31 11:06:18;;;;;;;16.55;13.43;;;4.30;99.90;;;;;;4980707;28;20229;-47
2022/03/31 11:08:48;;;;;;;25.95;19.85;;;4.30;99.90;;;;;;4980509;28;20256;-48
2022/03/31 11:11:22;;;;;;;22.15;18.58;;;4.30;99.90;;;;;;4982154;28;20332;-54
2022/03/31 11:13:54;;;;;;;25.70;19.38;;;4.50;99.90;;;;;;4981061;28;20570;-52
2022/03/31 11:16:23;;;;;;;22.40;18.13;;;4.60;99.90;;;;;;4980805;28;20206;-49
2022/03/31 11:18:59;;;;;;;21.45;16.25;;;4.50;99.90;;;;;;4980700;28;20559;-55
2022/03/31 11:21:36;;;;;;;24.30;18.95;;;4.60;99.90;;;;;;4980554;28;20229;-53
2022/03/31 11:24:05;;;;;;;29.90;15.48;;;4.70;99.90;;;;;;4980386;28;20424;-52
2022/03/31 11:26:46;;;;;;;31.48;17.58;;;4.80;99.90;;;;;;4980579;28;20201;-55
2022/03/31 11:29:17;;;;;;;27.50;18.77;;;4.90;99.90;;;;;;4981019;28;20201;-53
2022/03/31 11:31:52;;;;;;;26.38;17.85;;;4.80;99.90;;;;;;4980322;28;20229;-54
2022/03/31 11:34:30;;;;;;;26.98;17.23;;;4.90;99.90;;;;;;4980465;28;20264;-51
2022/03/31 11:37:00;;;;;;;30.65;19.67;;;4.60;99.90;;;;;;4980489;28;20213;-57
2022/03/31 11:39:30;;;;;;;26.00;17.45;;;4.50;99.90;;;;;;4980072;28;20252;-50
2022/03/31 11:42:00;;;;;;;29.67;19.58;;;4.50;99.90;;;;;;4978511;28;20239;-50
2022/03/31 11:44:32;;;;;;;25.88;20.23;;;4.60;99.90;;;;;;4980004;28;20259;-51
2022/03/31 11:47:00;;;;;;;22.38;18.23;;;4.60;99.90;;;;;;4980334;28;20508;-51
2022/03/31 11:49:27;;;;;;;23.55;17.73;;;4.60;99.90;;;;;;4980176;28;20205;-53
2022/03/31 11:51:58;;;;;;;23.90;15.95;;;4.60;99.90;;;;;;4979482;28;20233;-50
2022/03/31 11:54:28;;;;;;;26.50;19.20;;;4.60;99.90;;;;;;4979696;28;20217;-52
2022/03/31 11:57:09;;;;;;;30.55;18.90;;;4.60;99.90;;;;;;4980393;28;20209;-48
2022/03/31 11:59:37;;;;;;;22.88;16.23;;;4.50;99.90;;;;;;4980652;28;20208;-50
2022/03/31 12:02:16;;;;;;;24.20;17.88;;;4.60;99.90;;;;;;4980330;28;20362;-49
2022/03/31 12:04:47;;;;;;;26.90;20.08;;;4.60;99.90;;;;;;4979463;28;20201;-49
2022/03/31 12:07:19;;;;;;;25.30;20.05;;;4.60;99.90;;;;;;4971600;28;20548;-50
2022/03/31 12:09:48;;;;;;;32.20;22.25;;;4.60;99.90;;;;;;4979335;28;20208;-51
2022/03/31 12:12:16;;;;;;;25.48;19.40;;;4.60;99.90;;;;;;4979801;28;20222;-49
2022/03/31 12:14:57;;;;;;;34.17;19.95;;;4.60;99.90;;;;;;4979705;28;20559;-48
2022/03/31 12:17:25;;;;;;;27.48;18.55;;;4.70;99.90;;;;;;4979422;28;20309;-52
2022/03/31 12:19:52;;;;;;;25.95;20.60;;;4.70;99.90;;;;;;4979353;28;20276;-49
2022/03/31 12:22:31;;;;;;;24.33;20.02;;;4.60;99.90;;;;;;4979042;28;20229;-53
2022/03/31 12:24:58;;;;;;;24.98;19.23;;;4.60;99.90;;;;;;4979575;28;20201;-49
2022/03/31 12:27:27;;;;;;;28.52;20.98;;;4.70;99.90;;;;;;4979727;28;20202;-48
2022/03/31 12:30:04;;;;;;;27.27;21.67;;;4.60;99.90;;;;;;4980291;28;20263;-52
2022/03/31 12:32:33;;;;;;;28.30;20.77;;;4.70;99.90;;;;;;4979438;28;20217;-49
2022/03/31 12:35:02;;;;;;;22.85;17.80;;;4.70;99.90;;;;;;4980825;28;20201;-54
2022/03/31 12:37:39;;;;;;;26.23;17.75;;;4.70;99.90;;;;;;4982700;28;20198;-51
2022/03/31 12:40:13;;;;;;;25.70;20.15;;;4.70;99.90;;;;;;4982925;28;20232;-49
2022/03/31 12:42:54;;;;;;;23.45;16.80;;;4.70;99.90;;;;;;4983182;28;20260;-48
2022/03/31 12:45:22;;;;;;;25.65;21.00;;;4.70;99.90;;;;;;4982901;28;20247;-51
2022/03/31 12:47:50;;;;;;;23.92;16.92;;;4.60;99.90;;;;;;4982757;28;20499;-50
2022/03/31 12:50:22;;;;;;;22.17;17.60;;;4.60;99.90;;;;;;4982931;28;20205;-49
2022/03/31 12:52:59;;;;;;;16.55;13.23;;;4.70;99.90;;;;;;4982266;28;20273;-48